createdAt,value
2023-03-08T00:00:08.104Z,0.38
2023-03-08T00:01:47.868Z,0.36
2023-03-08T00:03:27.612Z,0.33
2023-03-08T00:05:07.381Z,0.37
2023-03-08T00:06:47.145Z,0.32
2023-03-08T00:08:26.924Z,0.34
2023-03-08T00:10:06.703Z,0.3
2023-03-08T00:11:46.453Z,0.48
2023-03-08T00:13:26.217Z,0.4
2023-03-08T00:15:06.061Z,0.4
2023-03-08T00:16:45.753Z,0.4
2023-03-08T00:18:25.572Z,0.41
2023-03-08T00:20:05.281Z,0.56
2023-03-08T00:21:45.085Z,0.55
2023-03-08T00:23:24.823Z,0.57
2023-03-08T00:25:04.598Z,0.58
2023-03-08T00:26:44.356Z,0.52
2023-03-08T00:28:24.130Z,0.51
2023-03-08T00:30:03.894Z,0.56
2023-03-08T00:31:43.682Z,0.58
2023-03-08T00:33:23.452Z,0.55
2023-03-08T00:35:03.205Z,0.54
2023-03-08T00:36:42.979Z,0.57
2023-03-08T00:38:22.733Z,0.54
2023-03-08T00:40:02.501Z,0.52
2023-03-08T00:41:42.254Z,0.52
2023-03-08T00:43:22.035Z,0.51
2023-03-08T00:45:01.809Z,0.54
2023-03-08T00:46:41.579Z,0.52
2023-03-08T00:48:21.349Z,0.54
2023-03-08T00:50:01.114Z,0.52
2023-03-08T00:51:40.875Z,0.54
2023-03-08T00:53:20.656Z,0.51
2023-03-08T00:55:00.410Z,0.56
2023-03-08T00:56:40.169Z,0.55
2023-03-08T00:58:19.945Z,0.55
2023-03-08T00:59:59.720Z,0.55
2023-03-08T01:01:39.482Z,0.56
2023-03-08T01:03:19.251Z,0.55
2023-03-08T01:04:59.007Z,0.55
2023-03-08T01:06:38.769Z,0.54
2023-03-08T01:08:18.562Z,0.54
2023-03-08T01:09:58.310Z,0.51
2023-03-08T01:11:38.078Z,0.51
2023-03-08T01:13:17.847Z,0.51
2023-03-08T01:14:57.666Z,0.51
2023-03-08T01:16:37.376Z,0.51
2023-03-08T01:18:17.144Z,0.52
2023-03-08T01:19:56.924Z,0.54
2023-03-08T01:21:36.685Z,0.5
2023-03-08T01:23:16.458Z,0.5
2023-03-08T01:24:56.233Z,0.52
2023-03-08T01:26:36.026Z,0.54
2023-03-08T01:28:15.742Z,0.51
2023-03-08T01:29:55.514Z,0.51
2023-03-08T01:31:35.308Z,0.5
2023-03-08T01:33:15.057Z,0.5
2023-03-08T01:34:54.839Z,0.55
2023-03-08T01:36:34.586Z,0.52
2023-03-08T01:38:14.362Z,0.45
2023-03-08T01:39:54.116Z,0.54
2023-03-08T01:41:33.884Z,0.52
2023-03-08T01:43:13.644Z,0.51
2023-03-08T01:44:53.455Z,0.5
2023-03-08T01:46:33.280Z,0.48
2023-03-08T01:48:12.960Z,0.49
2023-03-08T01:49:52.751Z,0.52
2023-03-08T01:51:32.506Z,0.48
2023-03-08T01:53:12.260Z,0.48
2023-03-08T01:54:52.030Z,0.49
2023-03-08T01:56:31.780Z,0.48
2023-03-08T01:58:11.555Z,0.51
2023-03-08T01:59:51.324Z,0.49
2023-03-08T02:01:31.104Z,0.48
2023-03-08T02:03:10.858Z,0.46
2023-03-08T02:04:50.623Z,0.51
2023-03-08T02:06:30.385Z,0.51
2023-03-08T02:08:10.152Z,0.49
2023-03-08T02:09:49.925Z,0.47
2023-03-08T02:11:29.706Z,0.5
2023-03-08T02:13:09.467Z,0.5
2023-03-08T02:14:49.225Z,0.49
2023-03-08T02:16:29.019Z,0.5
2023-03-08T02:18:08.762Z,0.49
2023-03-08T02:19:48.546Z,0.48
2023-03-08T02:21:28.305Z,0.46
2023-03-08T02:23:08.072Z,0.49
2023-03-08T02:24:47.841Z,0.49
2023-03-08T02:26:27.600Z,0.47
2023-03-08T02:28:07.377Z,0.5
2023-03-08T02:29:47.143Z,0.49
2023-03-08T02:31:26.902Z,0.48
2023-03-08T02:33:06.683Z,0.44
2023-03-08T02:34:46.443Z,0.41
2023-03-08T02:36:26.205Z,0.51
2023-03-08T02:38:06.013Z,0.51
2023-03-08T02:39:45.746Z,0.44
2023-03-08T02:41:25.508Z,0.43
2023-03-08T02:43:05.280Z,0.37
2023-03-08T02:44:45.038Z,0.36
2023-03-08T02:46:24.816Z,0.44
2023-03-08T02:48:04.578Z,0.42
2023-03-08T02:49:44.381Z,0.4
2023-03-08T02:51:24.169Z,0.5
2023-03-08T02:53:03.884Z,0.45
2023-03-08T02:54:43.646Z,0.48
2023-03-08T02:56:23.414Z,0.42
2023-03-08T02:58:03.174Z,0.43
2023-03-08T02:59:42.950Z,0.45
2023-03-08T03:01:22.719Z,0.43
2023-03-08T03:03:02.499Z,0.42
2023-03-08T03:04:42.257Z,0.3
2023-03-08T03:06:22.008Z,0.42
2023-03-08T03:08:01.800Z,0.42
2023-03-08T03:09:41.609Z,0.5
2023-03-08T03:11:21.327Z,0.4
2023-03-08T03:13:01.078Z,0.43
2023-03-08T03:14:40.841Z,0.45
2023-03-08T03:16:20.609Z,0.33
2023-03-08T03:18:00.380Z,0.34
2023-03-08T03:19:40.138Z,0.41
2023-03-08T03:21:19.910Z,0.42
2023-03-08T03:22:59.762Z,0.41
2023-03-08T03:24:39.448Z,0.33
2023-03-08T03:26:19.217Z,0.34
2023-03-08T03:27:58.978Z,0.38
2023-03-08T03:29:38.759Z,0.33
2023-03-08T03:31:18.509Z,0.33
2023-03-08T03:32:58.275Z,0.36
2023-03-08T03:34:38.049Z,0.35
2023-03-08T03:36:17.801Z,0.35
2023-03-08T03:37:57.586Z,0.3
2023-03-08T03:39:37.346Z,0.32
2023-03-08T03:41:17.112Z,0.33
2023-03-08T03:42:56.967Z,0.36
2023-03-08T03:44:36.650Z,0.34
2023-03-08T03:46:16.451Z,0.34
2023-03-08T03:47:56.181Z,0.36
2023-03-08T03:49:35.957Z,0.34
2023-03-08T03:51:15.720Z,0.31
2023-03-08T03:52:55.533Z,0.35
2023-03-08T03:54:35.260Z,0.31
2023-03-08T03:56:15.032Z,0.32
2023-03-08T03:57:54.806Z,0.35
2023-03-08T03:59:34.609Z,0.32
2023-03-08T04:01:14.335Z,0.31
2023-03-08T04:02:54.090Z,0.33
2023-03-08T04:04:33.920Z,0.35
2023-03-08T04:06:13.646Z,0.31
2023-03-08T04:07:53.414Z,0.33
2023-03-08T04:09:33.167Z,0.31
2023-03-08T04:11:12.926Z,0.31
2023-03-08T04:12:52.719Z,0.33
2023-03-08T04:14:32.468Z,0.3
2023-03-08T04:16:12.248Z,0.33
2023-03-08T04:17:52.061Z,0.35
2023-03-08T04:19:31.778Z,0.35
2023-03-08T04:21:11.556Z,0.33
2023-03-08T04:22:51.313Z,0.33
2023-03-08T04:24:31.082Z,0.33
2023-03-08T04:26:10.847Z,0.32
2023-03-08T04:27:50.631Z,0.3
2023-03-08T04:29:30.394Z,0.33
2023-03-08T04:31:10.145Z,0.33
2023-03-08T04:32:49.917Z,0.32
2023-03-08T04:34:29.672Z,0.28
2023-03-08T04:36:09.449Z,0.34
2023-03-08T04:37:49.218Z,0.29
2023-03-08T04:39:28.972Z,0.35
2023-03-08T04:41:08.736Z,0.33
2023-03-08T04:42:48.522Z,0.37
2023-03-08T04:44:28.267Z,0.42
2023-03-08T04:46:08.048Z,0.41
2023-03-08T04:47:47.832Z,0.48
2023-03-08T04:49:27.582Z,0.49
2023-03-08T04:51:07.365Z,0.54
2023-03-08T04:52:47.134Z,0.66
2023-03-08T04:54:26.882Z,0.76
2023-03-08T04:56:06.647Z,0.96
2023-03-08T04:57:46.410Z,1.31
2023-03-08T04:59:26.190Z,1.77
2023-03-08T05:01:05.984Z,2.51
2023-03-08T05:02:45.720Z,3.45
2023-03-08T05:04:25.475Z,4.69
2023-03-08T05:06:05.239Z,6.46
2023-03-08T05:07:45.063Z,8.51
2023-03-08T05:09:24.783Z,11.37
2023-03-08T05:11:04.562Z,15.4
2023-03-08T05:12:44.314Z,18.95
2023-03-08T05:14:24.104Z,22.45
2023-03-08T05:16:03.838Z,25.56
2023-03-08T05:17:43.682Z,26.78
2023-03-08T05:19:23.395Z,26.83
2023-03-08T05:21:03.213Z,26.86
2023-03-08T05:22:42.927Z,26.85
2023-03-08T05:24:22.688Z,26.88
2023-03-08T05:26:02.506Z,26.89
2023-03-08T05:27:42.218Z,26.88
2023-03-08T05:29:21.986Z,26.8
2023-03-08T05:31:01.766Z,26.9
2023-03-08T05:32:41.523Z,26.9
2023-03-08T05:34:21.294Z,26.92
2023-03-08T05:36:01.060Z,26.92
2023-03-08T05:37:40.831Z,26.94
2023-03-08T05:39:20.593Z,26.95
2023-03-08T05:41:00.365Z,26.95
2023-03-08T05:42:40.132Z,26.97
2023-03-08T05:44:19.896Z,26.98
2023-03-08T05:45:59.671Z,26.99
2023-03-08T05:47:39.478Z,27.01
2023-03-08T05:49:19.188Z,27.03
2023-03-08T05:50:59.047Z,27.05
2023-03-08T05:52:38.744Z,27.07
2023-03-08T05:54:18.500Z,26.97
2023-03-08T05:55:58.272Z,27.13
2023-03-08T05:57:38.032Z,27.17
2023-03-08T05:59:17.817Z,27.22
2023-03-08T06:00:57.627Z,27.23
2023-03-08T06:02:37.343Z,27.25
2023-03-08T06:04:17.104Z,27.26
2023-03-08T06:05:56.900Z,27.27
2023-03-08T06:07:36.658Z,27.29
2023-03-08T06:09:16.444Z,27.32
2023-03-08T06:10:56.220Z,27.35
2023-03-08T06:12:35.972Z,27.38
2023-03-08T06:14:15.747Z,27.4
2023-03-08T06:15:55.503Z,27.43
2023-03-08T06:17:35.276Z,84.09
2023-03-08T06:19:15.075Z,43.61
2023-03-08T06:20:54.820Z,27.6
2023-03-08T06:22:34.593Z,27.62
2023-03-08T06:24:14.372Z,27.64
2023-03-08T06:25:54.117Z,27.69
2023-03-08T06:27:33.901Z,27.74
2023-03-08T06:29:13.675Z,27.79
2023-03-08T06:30:53.440Z,27.84
2023-03-08T06:32:33.206Z,27.86
2023-03-08T06:34:12.977Z,27.89
2023-03-08T06:35:52.749Z,27.95
2023-03-08T06:37:32.528Z,28.01
2023-03-08T06:39:12.374Z,28.06
2023-03-08T06:40:52.066Z,28.13
2023-03-08T06:42:31.828Z,28.19
2023-03-08T06:44:11.632Z,28.26
2023-03-08T06:45:51.413Z,28.22
2023-03-08T06:47:31.157Z,28.46
2023-03-08T06:49:10.925Z,28.58
2023-03-08T06:50:50.703Z,28.69
2023-03-08T06:52:30.458Z,28.77
2023-03-08T06:54:10.237Z,28.89
2023-03-08T06:55:49.995Z,28.96
2023-03-08T06:57:29.776Z,29.05
2023-03-08T06:59:09.533Z,29.15
2023-03-08T07:00:49.306Z,29.24
2023-03-08T07:02:29.081Z,29.33
2023-03-08T07:04:08.861Z,29.43
2023-03-08T07:05:48.618Z,29.54
2023-03-08T07:07:28.378Z,29.61
2023-03-08T07:09:08.152Z,29.63
2023-03-08T07:10:47.954Z,29.67
2023-03-08T07:12:27.749Z,29.79
2023-03-08T07:14:07.463Z,29.29
2023-03-08T07:15:47.236Z,29.35
2023-03-08T07:17:27.052Z,29.38
2023-03-08T07:19:06.764Z,47.93
2023-03-08T07:20:46.547Z,85.94
2023-03-08T07:22:26.305Z,86.33
2023-03-08T07:24:06.076Z,85.81
2023-03-08T07:25:45.855Z,85.67
2023-03-08T07:27:25.662Z,85.97
2023-03-08T07:29:05.404Z,85.98
2023-03-08T07:30:45.167Z,85.97
2023-03-08T07:32:24.932Z,85.94
2023-03-08T07:34:04.699Z,86.16
2023-03-08T07:35:44.499Z,86.4
2023-03-08T07:37:24.245Z,86.46
2023-03-08T07:39:04.038Z,86.29
2023-03-08T07:40:43.781Z,86.19
2023-03-08T07:42:23.596Z,86.13
2023-03-08T07:44:03.401Z,86.1
2023-03-08T07:45:43.121Z,86.07
2023-03-08T07:47:22.865Z,85.97
2023-03-08T07:49:02.664Z,86.21
2023-03-08T07:50:42.538Z,86.47
2023-03-08T07:52:22.302Z,86.7
2023-03-08T07:54:02.164Z,86.81
2023-03-08T07:55:41.897Z,86.92
2023-03-08T07:57:21.500Z,87.13
2023-03-08T07:59:01.472Z,87.48
2023-03-08T08:00:41.190Z,87.96
2023-03-08T08:02:20.980Z,88.09
2023-03-08T08:04:00.654Z,88.36
2023-03-08T08:05:40.343Z,88.35
2023-03-08T08:07:20.111Z,88.48
2023-03-08T08:08:59.987Z,88.7
2023-03-08T08:10:39.709Z,88.9
2023-03-08T08:12:19.414Z,88.97
2023-03-08T08:13:59.180Z,88.89
2023-03-08T08:15:38.992Z,88.69
2023-03-08T08:17:18.741Z,88.72
2023-03-08T08:18:58.497Z,88.64
2023-03-08T08:20:38.354Z,88.5
2023-03-08T08:22:18.061Z,88.43
2023-03-08T08:23:57.811Z,88.29
2023-03-08T08:25:37.670Z,88.33
2023-03-08T08:27:17.399Z,88.39
2023-03-08T08:28:57.164Z,88.5
2023-03-08T08:30:36.923Z,88.43
2023-03-08T08:32:16.661Z,88.51
2023-03-08T08:33:56.415Z,88.67
2023-03-08T08:35:36.213Z,88.81
2023-03-08T08:37:15.990Z,89
2023-03-08T08:38:55.830Z,88.96
2023-03-08T08:40:35.529Z,89.49
2023-03-08T08:42:15.364Z,89.45
2023-03-08T08:43:55.173Z,90.16
2023-03-08T08:45:34.831Z,90.67
2023-03-08T08:47:14.611Z,90.31
2023-03-08T08:48:54.359Z,90.84
2023-03-08T08:50:34.139Z,90.3
2023-03-08T08:52:14.065Z,90.94
2023-03-08T08:53:53.787Z,90.54
2023-03-08T08:55:33.480Z,90.56
2023-03-08T08:57:13.376Z,90.71
2023-03-08T08:58:53.089Z,90.31
2023-03-08T09:00:32.840Z,90.75
2023-03-08T09:02:12.526Z,90.55
2023-03-08T09:03:52.401Z,89.69
2023-03-08T09:05:32.114Z,88.4
2023-03-08T09:07:11.980Z,89.39
2023-03-08T09:08:51.774Z,86.79
2023-03-08T09:10:31.417Z,87.56
2023-03-08T09:12:11.313Z,89.45
2023-03-08T09:13:50.983Z,88.26
2023-03-08T09:15:30.771Z,89.08
2023-03-08T09:17:10.606Z,88.95
2023-03-08T09:18:50.258Z,88.03
2023-03-08T09:20:30.116Z,89.67
2023-03-08T09:22:09.764Z,89.38
2023-03-08T09:23:49.517Z,90.46
2023-03-08T09:25:29.313Z,90.58
2023-03-08T09:27:09.162Z,89.87
2023-03-08T09:28:48.843Z,89.39
2023-03-08T09:30:28.616Z,89.58
2023-03-08T09:32:08.388Z,88.71
2023-03-08T09:33:48.173Z,87.72
2023-03-08T09:35:27.926Z,87.67
2023-03-08T09:37:07.693Z,88.83
2023-03-08T09:38:47.471Z,89.42
2023-03-08T09:40:27.242Z,87.99
2023-03-08T09:42:07.008Z,87.69
2023-03-08T09:43:46.797Z,87.86
2023-03-08T09:45:26.574Z,88.35
2023-03-08T09:47:06.401Z,88.5
2023-03-08T09:48:46.256Z,88.67
2023-03-08T09:50:26.007Z,88.97
2023-03-08T09:52:05.797Z,88.95
2023-03-08T09:53:45.585Z,88.87
2023-03-08T09:55:25.166Z,88.83
2023-03-08T09:57:04.924Z,88.47
2023-03-08T09:58:44.785Z,88.76
2023-03-08T10:00:24.538Z,89.4
2023-03-08T10:02:04.242Z,89.39
2023-03-08T10:03:44.110Z,89.54
2023-03-08T10:05:23.846Z,89.32
2023-03-08T10:07:03.559Z,89.43
2023-03-08T10:08:43.370Z,89.22
2023-03-08T10:10:23.202Z,87.46
2023-03-08T10:12:02.893Z,88.49
2023-03-08T10:13:42.670Z,88.11
2023-03-08T10:15:22.407Z,89.13
2023-03-08T10:17:02.171Z,88.61
2023-03-08T10:18:41.939Z,87.63
2023-03-08T10:20:21.722Z,87.1
2023-03-08T10:22:01.486Z,86.94
2023-03-08T10:23:41.323Z,87.53
2023-03-08T10:25:21.015Z,87.84
2023-03-08T10:27:00.778Z,89.63
2023-03-08T10:28:40.548Z,89.28
2023-03-08T10:30:20.313Z,87.68
2023-03-08T10:32:00.089Z,87.59
2023-03-08T10:33:39.902Z,87.91
2023-03-08T10:35:19.670Z,89.07
2023-03-08T10:36:59.588Z,87.96
2023-03-08T10:38:39.288Z,87.56
2023-03-08T10:40:18.934Z,87.83
2023-03-08T10:41:58.768Z,87.62
2023-03-08T10:43:38.479Z,87.7
2023-03-08T10:45:18.267Z,87.99
2023-03-08T10:46:58.051Z,88.31
2023-03-08T10:48:37.854Z,88.67
2023-03-08T10:50:17.566Z,90.03
2023-03-08T10:51:57.333Z,89.18
2023-03-08T10:53:37.116Z,88.95
2023-03-08T10:55:16.877Z,88.87
2023-03-08T10:56:56.666Z,89.01
2023-03-08T10:58:36.449Z,89.54
2023-03-08T11:00:16.220Z,89.04
2023-03-08T11:01:55.944Z,88.56
2023-03-08T11:03:35.761Z,88.01
2023-03-08T11:05:15.499Z,87.99
2023-03-08T11:06:55.335Z,87.8
2023-03-08T11:08:35.027Z,87.65
2023-03-08T11:10:14.945Z,87.56
2023-03-08T11:11:54.669Z,87.37
2023-03-08T11:13:34.411Z,87.34
2023-03-08T11:15:14.156Z,87.67
2023-03-08T11:16:54.065Z,87.99
2023-03-08T11:18:33.828Z,88.04
2023-03-08T11:20:13.405Z,88.15
2023-03-08T11:21:53.194Z,88.29
2023-03-08T11:23:33.016Z,88.18
2023-03-08T11:25:12.720Z,87.98
2023-03-08T11:26:52.558Z,87.86
2023-03-08T11:28:32.272Z,87.73
2023-03-08T11:30:12.059Z,87.7
2023-03-08T11:31:51.813Z,87.91
2023-03-08T11:33:31.584Z,88.05
2023-03-08T11:35:11.346Z,88.3
2023-03-08T11:36:51.215Z,88.61
2023-03-08T11:38:30.885Z,88.86
2023-03-08T11:40:10.662Z,88.93
2023-03-08T11:41:50.453Z,89.01
2023-03-08T11:43:30.197Z,88.92
2023-03-08T11:45:09.952Z,88.56
2023-03-08T11:46:49.735Z,88.22
2023-03-08T11:48:29.509Z,87.92
2023-03-08T11:50:09.278Z,87.91
2023-03-08T11:51:49.085Z,87.84
2023-03-08T11:53:28.812Z,87.81
2023-03-08T11:55:08.579Z,87.71
2023-03-08T11:56:48.345Z,87.51
2023-03-08T11:58:28.132Z,87.29
2023-03-08T12:00:07.895Z,87.18
2023-03-08T12:01:47.670Z,87.2
2023-03-08T12:03:27.542Z,87.34
2023-03-08T12:05:07.297Z,87.55
2023-03-08T12:06:47.043Z,87.57
2023-03-08T12:08:26.863Z,87.52
2023-03-08T12:10:06.588Z,87.18
2023-03-08T12:11:46.265Z,86.94
2023-03-08T12:13:26.057Z,86.76
2023-03-08T12:15:05.810Z,86.74
2023-03-08T12:16:45.579Z,86.9
2023-03-08T12:18:25.355Z,86.94
2023-03-08T12:20:05.117Z,87
2023-03-08T12:21:44.885Z,86.9
2023-03-08T12:23:24.742Z,86.85
2023-03-08T12:25:04.427Z,86.9
2023-03-08T12:26:44.203Z,87.03
2023-03-08T12:28:24.002Z,87.29
2023-03-08T12:30:03.914Z,88
2023-03-08T12:31:43.507Z,88.04
2023-03-08T12:33:23.328Z,87.83
2023-03-08T12:35:03.085Z,87.48
2023-03-08T12:36:42.847Z,87.28
2023-03-08T12:38:22.697Z,87.12
2023-03-08T12:40:02.363Z,87.2
2023-03-08T12:41:42.143Z,87.43
2023-03-08T12:43:21.906Z,87.5
2023-03-08T12:45:01.663Z,87.58
2023-03-08T12:46:41.436Z,87.48
2023-03-08T12:48:21.221Z,87.38
2023-03-08T12:50:01.106Z,87
2023-03-08T12:51:40.822Z,86.65
2023-03-08T12:53:20.524Z,86.43
2023-03-08T12:55:00.291Z,86.27
2023-03-08T12:56:40.087Z,86.26
2023-03-08T12:58:19.821Z,86.3
2023-03-08T12:59:59.681Z,86.26
2023-03-08T13:01:39.382Z,85.99
2023-03-08T13:03:19.164Z,85.79
2023-03-08T13:04:58.914Z,85.8
2023-03-08T13:06:38.684Z,85.91
2023-03-08T13:08:18.499Z,86.06
2023-03-08T13:09:58.233Z,86.26
2023-03-08T13:11:38.004Z,86.22
2023-03-08T13:13:17.781Z,86.16
2023-03-08T13:14:57.525Z,86.1
2023-03-08T13:16:37.339Z,86.13
2023-03-08T13:18:17.096Z,86.12
2023-03-08T13:19:56.844Z,86.35
2023-03-08T13:21:36.618Z,86.6
2023-03-08T13:23:16.624Z,86.75
2023-03-08T13:24:56.235Z,86.9
2023-03-08T13:26:35.920Z,86.96
2023-03-08T13:28:15.686Z,86.96
2023-03-08T13:29:55.559Z,86.81
2023-03-08T13:31:35.247Z,86.78
2023-03-08T13:33:15.004Z,86.72
2023-03-08T13:34:54.779Z,86.74
2023-03-08T13:36:34.585Z,86.73
2023-03-08T13:38:14.305Z,86.79
2023-03-08T13:39:54.113Z,86.9
2023-03-08T13:41:33.850Z,87.03
2023-03-08T13:43:13.637Z,87.12
2023-03-08T13:44:53.430Z,87
2023-03-08T13:46:33.163Z,86.87
2023-03-08T13:48:12.948Z,86.64
2023-03-08T13:49:52.701Z,86.88
2023-03-08T13:51:32.468Z,87.25
2023-03-08T13:53:12.256Z,87.47
2023-03-08T13:54:52.189Z,87
2023-03-08T13:56:31.948Z,86.75
2023-03-08T13:58:11.712Z,86.44
2023-03-08T13:59:51.322Z,86.15
2023-03-08T14:01:31.237Z,86.01
2023-03-08T14:03:10.858Z,86.42
2023-03-08T14:04:50.621Z,86.81
2023-03-08T14:06:30.616Z,86.95
2023-03-08T14:08:10.225Z,86.96
2023-03-08T14:09:49.953Z,86.9
2023-03-08T14:11:29.790Z,86.79
2023-03-08T14:13:09.517Z,86.69
2023-03-08T14:14:49.245Z,86.63
2023-03-08T14:16:29.061Z,86.61
2023-03-08T14:18:08.785Z,86.41
2023-03-08T14:19:48.634Z,86.06
2023-03-08T14:21:28.345Z,85.84
2023-03-08T14:23:08.176Z,85.78
2023-03-08T14:24:47.877Z,85.31
2023-03-08T14:26:27.642Z,85.01
2023-03-08T14:28:07.401Z,84.67
2023-03-08T14:29:47.178Z,84.25
2023-03-08T14:31:26.941Z,83.88
2023-03-08T14:33:06.743Z,83.32
2023-03-08T14:34:46.479Z,82.6
2023-03-08T14:36:26.261Z,82.46
2023-03-08T14:38:06.051Z,82.92
2023-03-08T14:39:45.907Z,83.93
2023-03-08T14:41:25.590Z,84.31
2023-03-08T14:43:05.402Z,83.85
2023-03-08T14:44:45.110Z,82.73
2023-03-08T14:46:24.946Z,81.97
2023-03-08T14:48:04.659Z,81.82
2023-03-08T14:49:44.463Z,81.57
2023-03-08T14:51:24.188Z,81.78
2023-03-08T14:53:03.960Z,82
2023-03-08T14:54:43.758Z,82.34
2023-03-08T14:56:23.510Z,83.48
2023-03-08T14:58:03.273Z,84.05
2023-03-08T14:59:43.023Z,84.91
2023-03-08T15:01:22.802Z,85.17
2023-03-08T15:03:02.672Z,85.41
2023-03-08T15:04:42.406Z,85.6
2023-03-08T15:06:22.118Z,85.88
2023-03-08T15:08:01.914Z,86.1
2023-03-08T15:09:41.656Z,86.19
2023-03-08T15:11:21.557Z,86.12
2023-03-08T15:13:01.194Z,86.16
2023-03-08T15:14:40.951Z,86.13
2023-03-08T15:16:20.728Z,85.99
2023-03-08T15:18:00.531Z,85.77
2023-03-08T15:19:40.279Z,85.46
2023-03-08T15:21:20.056Z,85.12
2023-03-08T15:22:59.809Z,84.6
2023-03-08T15:24:39.591Z,84.11
2023-03-08T15:26:19.401Z,83.46
2023-03-08T15:27:59.124Z,82.89
2023-03-08T15:29:38.898Z,82.68
2023-03-08T15:31:18.656Z,82.59
2023-03-08T15:32:58.453Z,82.42
2023-03-08T15:34:38.209Z,82.25
2023-03-08T15:36:17.975Z,82.24
2023-03-08T15:37:57.747Z,82.14
2023-03-08T15:39:37.528Z,82.1
2023-03-08T15:41:17.279Z,82.16
2023-03-08T15:42:57.057Z,82.59
2023-03-08T15:44:36.873Z,82.3
2023-03-08T15:46:16.597Z,82.4
2023-03-08T15:47:56.452Z,82.28
2023-03-08T15:49:36.135Z,82.07
2023-03-08T15:51:15.905Z,81.41
2023-03-08T15:52:55.825Z,80.75
2023-03-08T15:54:35.468Z,80.6
2023-03-08T15:56:15.348Z,80.65
2023-03-08T15:57:54.985Z,80.46
2023-03-08T15:59:34.821Z,79.64
2023-03-08T16:01:14.572Z,76.81
2023-03-08T16:02:54.305Z,67.87
2023-03-08T16:04:34.060Z,56.11
2023-03-08T16:06:13.838Z,45.56
2023-03-08T16:07:53.822Z,38.82
2023-03-08T16:09:33.385Z,37.87
2023-03-08T16:11:13.193Z,37.47
2023-03-08T16:12:52.928Z,37.15
2023-03-08T16:14:32.812Z,37.39
2023-03-08T16:16:12.476Z,33.98
2023-03-08T16:17:52.239Z,30.22
2023-03-08T16:19:31.991Z,28.81
2023-03-08T16:21:11.863Z,28.78
2023-03-08T16:22:51.528Z,28.74
2023-03-08T16:24:31.375Z,28.71
2023-03-08T16:26:11.077Z,28.66
2023-03-08T16:27:50.948Z,28.64
2023-03-08T16:29:30.623Z,28.58
2023-03-08T16:31:10.387Z,28.56
2023-03-08T16:32:50.204Z,28.51
2023-03-08T16:34:29.913Z,33.66
2023-03-08T16:36:09.719Z,33.02
2023-03-08T16:37:49.477Z,28.41
2023-03-08T16:39:29.220Z,28.25
2023-03-08T16:41:09.013Z,28.37
2023-03-08T16:42:48.811Z,28.34
2023-03-08T16:44:28.750Z,28.31
2023-03-08T16:46:08.309Z,28.27
2023-03-08T16:47:48.175Z,28.24
2023-03-08T16:49:27.827Z,28.18
2023-03-08T16:51:07.878Z,28.18
2023-03-08T16:52:47.461Z,28.15
2023-03-08T16:54:27.276Z,28.11
2023-03-08T16:56:06.886Z,28.08
2023-03-08T16:57:46.701Z,28.04
2023-03-08T16:59:26.542Z,28.02
2023-03-08T17:01:06.187Z,27.99
2023-03-08T17:02:46.002Z,27.95
2023-03-08T17:04:25.791Z,27.85
2023-03-08T17:06:05.506Z,27.9
2023-03-08T17:07:45.265Z,27.85
2023-03-08T17:09:25.067Z,27.8
2023-03-08T17:11:04.807Z,27.75
2023-03-08T17:12:44.568Z,27.61
2023-03-08T17:14:24.331Z,23.69
2023-03-08T17:16:04.164Z,19.52
2023-03-08T17:17:43.875Z,15.92
2023-03-08T17:19:23.653Z,12.77
2023-03-08T17:21:03.410Z,10.04
2023-03-08T17:22:43.168Z,7.75
2023-03-08T17:24:22.948Z,5.84
2023-03-08T17:26:02.706Z,4.1
2023-03-08T17:27:42.516Z,3.12
2023-03-08T17:29:22.246Z,2.47
2023-03-08T17:31:02.013Z,2.03
2023-03-08T17:32:41.793Z,1.58
2023-03-08T17:34:21.553Z,1.22
2023-03-08T17:36:01.308Z,0.96
2023-03-08T17:37:41.105Z,0.77
2023-03-08T17:39:20.836Z,0.66
2023-03-08T17:41:00.614Z,0.56
2023-03-08T17:42:40.383Z,0.48
2023-03-08T17:44:20.153Z,0.45
2023-03-08T17:45:59.908Z,0.39
2023-03-08T17:47:39.685Z,0.41
2023-03-08T17:49:19.473Z,0.35
2023-03-08T17:50:59.209Z,0.37
2023-03-08T17:52:38.986Z,0.35
2023-03-08T17:54:18.753Z,0.36
2023-03-08T17:55:58.518Z,0.32
2023-03-08T17:57:38.284Z,0.32
2023-03-08T17:59:18.064Z,0.33
2023-03-08T18:00:57.828Z,0.32
2023-03-08T18:02:37.580Z,0.3
2023-03-08T18:04:17.354Z,0.33
2023-03-08T18:05:57.116Z,0.3
2023-03-08T18:07:36.887Z,0.29
2023-03-08T18:09:16.671Z,0.32
2023-03-08T18:10:56.420Z,0.33
2023-03-08T18:12:36.190Z,0.32
2023-03-08T18:14:15.968Z,0.28
2023-03-08T18:15:55.722Z,0.3
2023-03-08T18:17:35.490Z,0.26
2023-03-08T18:19:15.319Z,0.26
2023-03-08T18:20:55.046Z,0.3
2023-03-08T18:22:34.801Z,0.28
2023-03-08T18:24:14.564Z,0.29
2023-03-08T18:25:54.324Z,0.3
2023-03-08T18:27:34.105Z,0.31
2023-03-08T18:29:13.863Z,0.28
2023-03-08T18:30:53.630Z,0.3
2023-03-08T18:32:33.385Z,0.28
2023-03-08T18:34:13.151Z,0.24
2023-03-08T18:35:52.934Z,0.27
2023-03-08T18:37:32.694Z,0.3
2023-03-08T18:39:12.463Z,0.28
2023-03-08T18:40:52.240Z,0.26
2023-03-08T18:42:32.004Z,0.29
2023-03-08T18:44:11.781Z,0.3
2023-03-08T18:45:51.520Z,0.3
2023-03-08T18:47:31.297Z,0.28
2023-03-08T18:49:11.061Z,0.3
2023-03-08T18:50:50.832Z,0.29
2023-03-08T18:52:30.598Z,0.27
2023-03-08T18:54:10.392Z,0.27
2023-03-08T18:55:50.124Z,0.3
2023-03-08T18:57:29.892Z,0.3
2023-03-08T18:59:09.672Z,0.27
2023-03-08T19:00:49.463Z,0.29
2023-03-08T19:02:29.209Z,0.29
2023-03-08T19:04:08.983Z,0.26
2023-03-08T19:05:48.745Z,0.29
2023-03-08T19:07:28.495Z,0.3
2023-03-08T19:09:08.273Z,0.25
2023-03-08T19:10:48.039Z,0.24
2023-03-08T19:12:27.815Z,0.24
2023-03-08T19:14:07.574Z,0.24
2023-03-08T19:15:47.335Z,0.23
2023-03-08T19:17:27.104Z,0.27
2023-03-08T19:19:06.885Z,0.26
2023-03-08T19:20:46.648Z,0.26
2023-03-08T19:22:26.405Z,0.25
2023-03-08T19:24:06.183Z,0.26
2023-03-08T19:25:45.954Z,0.28
2023-03-08T19:27:25.713Z,0.24
2023-03-08T19:29:05.478Z,0.29
2023-03-08T19:30:45.236Z,0.24
2023-03-08T19:32:25.026Z,0.28
2023-03-08T19:34:04.782Z,0.25
2023-03-08T19:35:44.558Z,0.28
2023-03-08T19:37:24.414Z,0.26
2023-03-08T19:39:04.086Z,0.28
2023-03-08T19:40:43.853Z,0.27
2023-03-08T19:42:23.622Z,0.28
2023-03-08T19:44:03.380Z,0.27
2023-03-08T19:45:43.158Z,0.25
2023-03-08T19:47:22.930Z,0.28
2023-03-08T19:49:02.723Z,0.29
2023-03-08T19:50:42.466Z,0.29
2023-03-08T19:52:22.238Z,0.26
2023-03-08T19:54:01.991Z,0.28
2023-03-08T19:55:41.759Z,0.28
2023-03-08T19:57:21.526Z,0.24
2023-03-08T19:59:01.295Z,0.28
2023-03-08T20:00:41.053Z,0.29
2023-03-08T20:02:20.833Z,0.27
2023-03-08T20:04:00.581Z,0.28
2023-03-08T20:05:40.364Z,0.3
2023-03-08T20:07:20.133Z,0.32
2023-03-08T20:08:59.934Z,0.29
2023-03-08T20:10:39.791Z,0.29
2023-03-08T20:12:19.444Z,0.29
2023-03-08T20:13:59.193Z,0.32
2023-03-08T20:15:38.993Z,0.28
2023-03-08T20:17:18.785Z,0.28
2023-03-08T20:18:58.556Z,0.31
2023-03-08T20:20:38.273Z,0.28
2023-03-08T20:22:18.184Z,0.3
2023-03-08T20:23:57.839Z,0.29
2023-03-08T20:25:37.577Z,0.32
2023-03-08T20:27:17.340Z,0.28
2023-03-08T20:28:57.166Z,0.31
2023-03-08T20:30:36.876Z,0.31
2023-03-08T20:32:16.653Z,0.31
2023-03-08T20:33:56.422Z,0.3
2023-03-08T20:35:36.174Z,0.32
2023-03-08T20:37:15.988Z,0.32
2023-03-08T20:38:55.769Z,0.28
2023-03-08T20:40:35.489Z,0.31
2023-03-08T20:42:15.314Z,0.31
2023-03-08T20:43:55.009Z,0.32
2023-03-08T20:45:34.778Z,0.3
2023-03-08T20:47:14.544Z,0.32
2023-03-08T20:48:54.329Z,0.3
2023-03-08T20:50:34.072Z,0.32
2023-03-08T20:52:13.842Z,0.34
2023-03-08T20:53:53.603Z,0.32
2023-03-08T20:55:33.373Z,0.31
2023-03-08T20:57:13.144Z,0.3
2023-03-08T20:58:52.912Z,0.29
2023-03-08T21:00:32.681Z,0.33
2023-03-08T21:02:12.439Z,0.3
2023-03-08T21:03:52.245Z,0.33
2023-03-08T21:05:32.032Z,0.33
2023-03-08T21:07:11.752Z,0.3
2023-03-08T21:08:51.512Z,0.34
2023-03-08T21:10:31.279Z,0.31
2023-03-08T21:12:11.046Z,0.31
2023-03-08T21:13:50.882Z,0.32
2023-03-08T21:15:30.585Z,0.33
2023-03-08T21:17:10.353Z,0.32
2023-03-08T21:18:50.122Z,0.32
2023-03-08T21:20:29.882Z,0.31
2023-03-08T21:22:09.650Z,0.33
2023-03-08T21:23:49.421Z,0.33
2023-03-08T21:25:29.196Z,0.3
2023-03-08T21:27:08.994Z,0.33
2023-03-08T21:28:48.710Z,0.31
2023-03-08T21:30:28.498Z,0.33
2023-03-08T21:32:08.287Z,0.32
2023-03-08T21:33:48.020Z,0.31
2023-03-08T21:35:27.803Z,0.36
2023-03-08T21:37:07.544Z,0.31
2023-03-08T21:38:47.315Z,0.33
2023-03-08T21:40:27.094Z,0.33
2023-03-08T21:42:06.864Z,0.35
2023-03-08T21:43:46.613Z,0.37
2023-03-08T21:45:26.394Z,0.32
2023-03-08T21:47:06.190Z,0.32
2023-03-08T21:48:45.993Z,0.35